Pleasant Valley, Wisconsin
Current Conditions -  °F | °C
As of 7:15 PM on Sunday 23 Nov 2014 (Local Time) from KRNH Reporting Station
Haze Haze  
Wind Chill: 31°   Ceiling: 2800
Heat Index: 37°   Visibility: 5mi
Dew Point: 37°   Wind: 7mph
Humidity: 100%   Direction: 290°WNW
Pressure: 29.36"   Gusts: NA
Location:  44.9597°N, 92.4593°W
Report Text: KRNH 240115Z AUTO 29006KT 5SM BR SCT005 BKN028 OVC041 03/03 A2936 RMK AO2 T00260026
Loading
Personal Weather Stations






























Interactive Weather Map New forecast layout! Learn more

10-Day Weather Forecast

Advertisements
Track Severe Weather on mobile